Glanamman, United Kingdom
Current Conditions -  °F | °C
As of 12:50 PM on Monday 29 Dec 2014 (Local Time) from EGOP Reporting Station
Clear Clear  
Wind Chill: 37°   Ceiling: Unl
Heat Index: 37°   Visibility: 6mi
Dew Point: 36°   Wind: 3mph
Humidity: 93%   Direction: 50°NE
Pressure: 30.8"   Gusts: NA
Location:  51.8°N, 3.93°W
Report Text: EGOP 291250Z AUTO 05003KT 9999 // NCD 03/02 Q1043
Loading
Personal Weather Stations






























Interactive Weather Map New forecast layout! Learn more

10-Day Weather Forecast

Advertisements
Track Severe Weather on mobile